sensor_id;sensor_type;location;lat;lon;timestamp;P1;durP1;ratioP1;P2;durP2;ratioP2
54372;SDS011;69157;53.094;10.016;2023-04-15T00:01:24;12.38;;;6.57;;
54372;SDS011;69157;53.094;10.016;2023-04-15T00:03:51;14.13;;;7.03;;
54372;SDS011;69157;53.094;10.016;2023-04-15T00:06:18;14.90;;;6.95;;
54372;SDS011;69157;53.094;10.016;2023-04-15T00:08:44;15.35;;;7.60;;
54372;SDS011;69157;53.094;10.016;2023-04-15T00:11:11;12.90;;;7.13;;
54372;SDS011;69157;53.094;10.016;2023-04-15T00:13:37;14.52;;;7.60;;
54372;SDS011;69157;53.094;10.016;2023-04-15T00:16:04;13.63;;;7.15;;
54372;SDS011;69157;53.094;10.016;2023-04-15T00:18:30;11.90;;;6.85;;
54372;SDS011;69157;53.094;10.016;2023-04-15T00:20:56;14.57;;;7.47;;
54372;SDS011;69157;53.094;10.016;2023-04-15T00:23:22;15.48;;;7.28;;
54372;SDS011;69157;53.094;10.016;2023-04-15T00:25:49;16.10;;;7.45;;
54372;SDS011;69157;53.094;10.016;2023-04-15T00:28:15;13.85;;;6.60;;
54372;SDS011;69157;53.094;10.016;2023-04-15T00:30:41;14.85;;;7.20;;
54372;SDS011;69157;53.094;10.016;2023-04-15T00:33:07;13.77;;;7.13;;
54372;SDS011;69157;53.094;10.016;2023-04-15T00:35:33;13.07;;;6.53;;
54372;SDS011;69157;53.094;10.016;2023-04-15T00:38:01;11.98;;;6.20;;
54372;SDS011;69157;53.094;10.016;2023-04-15T00:40:27;11.70;;;6.03;;
54372;SDS011;69157;53.094;10.016;2023-04-15T00:42:53;11.05;;;6.18;;
54372;SDS011;69157;53.094;10.016;2023-04-15T00:45:19;10.05;;;5.80;;
54372;SDS011;69157;53.094;10.016;2023-04-15T00:47:45;11.23;;;5.82;;
54372;SDS011;69157;53.094;10.016;2023-04-15T00:50:12;11.75;;;6.13;;
54372;SDS011;69157;53.094;10.016;2023-04-15T00:52:39;10.90;;;5.53;;
54372;SDS011;69157;53.094;10.016;2023-04-15T00:55:05;9.80;;;5.47;;
54372;SDS011;69157;53.094;10.016;2023-04-15T00:57:32;9.88;;;6.00;;
54372;SDS011;69157;53.094;10.016;2023-04-15T00:59:58;10.98;;;5.53;;
54372;SDS011;69157;53.094;10.016;2023-04-15T01:02:25;11.95;;;5.85;;
54372;SDS011;69157;53.094;10.016;2023-04-15T01:04:51;10.95;;;6.03;;
54372;SDS011;69157;53.094;10.016;2023-04-15T01:07:17;11.52;;;5.85;;
54372;SDS011;69157;53.094;10.016;2023-04-15T01:09:43;11.02;;;5.75;;
54372;SDS011;69157;53.094;10.016;2023-04-15T01:12:11;10.82;;;5.57;;
54372;SDS011;69157;53.094;10.016;2023-04-15T01:14:38;9.10;;;5.53;;
54372;SDS011;69157;53.094;10.016;2023-04-15T01:17:04;9.20;;;5.28;;
54372;SDS011;69157;53.094;10.016;2023-04-15T01:19:30;10.02;;;4.85;;
54372;SDS011;69157;53.094;10.016;2023-04-15T01:21:56;8.90;;;4.63;;
54372;SDS011;69157;53.094;10.016;2023-04-15T01:24:22;8.95;;;4.78;;
54372;SDS011;69157;53.094;10.016;2023-04-15T01:26:48;11.05;;;4.70;;
54372;SDS011;69157;53.094;10.016;2023-04-15T01:29:14;9.18;;;4.75;;
54372;SDS011;69157;53.094;10.016;2023-04-15T01:31:47;8.23;;;4.70;;
54372;SDS011;69157;53.094;10.016;2023-04-15T01:34:14;9.32;;;4.30;;
54372;SDS011;69157;53.094;10.016;2023-04-15T01:36:40;7.50;;;4.60;;
54372;SDS011;69157;53.094;10.016;2023-04-15T01:39:07;9.13;;;5.13;;
54372;SDS011;69157;53.094;10.016;2023-04-15T01:41:33;7.45;;;4.32;;
54372;SDS011;69157;53.094;10.016;2023-04-15T01:43:59;7.63;;;4.05;;
54372;SDS011;69157;53.094;10.016;2023-04-15T01:46:26;8.82;;;4.60;;
54372;SDS011;69157;53.094;10.016;2023-04-15T01:48:52;7.97;;;4.53;;
54372;SDS011;69157;53.094;10.016;2023-04-15T01:51:18;7.72;;;4.10;;
54372;SDS011;69157;53.094;10.016;2023-04-15T01:53:44;8.02;;;4.95;;
54372;SDS011;69157;53.094;10.016;2023-04-15T01:56:10;8.93;;;4.85;;
54372;SDS011;69157;53.094;10.016;2023-04-15T01:58:37;10.05;;;4.68;;
54372;SDS011;69157;53.094;10.016;2023-04-15T02:01:04;10.68;;;5.38;;
54372;SDS011;69157;53.094;10.016;2023-04-15T02:03:31;9.18;;;5.25;;
54372;SDS011;69157;53.094;10.016;2023-04-15T02:05:57;9.13;;;5.18;;
54372;SDS011;69157;53.094;10.016;2023-04-15T02:08:23;8.93;;;5.40;;
54372;SDS011;69157;53.094;10.016;2023-04-15T02:10:49;9.18;;;5.25;;
54372;SDS011;69157;53.094;10.016;2023-04-15T02:13:16;9.73;;;5.32;;
54372;SDS011;69157;53.094;10.016;2023-04-15T02:15:48;10.00;;;5.47;;
54372;SDS011;69157;53.094;10.016;2023-04-15T02:18:15;9.20;;;5.13;;
54372;SDS011;69157;53.094;10.016;2023-04-15T02:20:41;12.88;;;6.20;;
54372;SDS011;69157;53.094;10.016;2023-04-15T02:23:11;12.23;;;6.50;;
54372;SDS011;69157;53.094;10.016;2023-04-15T02:25:37;12.27;;;6.10;;
54372;SDS011;69157;53.094;10.016;2023-04-15T02:28:04;12.13;;;6.05;;
54372;SDS011;69157;53.094;10.016;2023-04-15T02:30:31;12.57;;;7.15;;
54372;SDS011;69157;53.094;10.016;2023-04-15T02:32:57;14.73;;;7.38;;
54372;SDS011;69157;53.094;10.016;2023-04-15T02:35:23;12.93;;;7.13;;
54372;SDS011;69157;53.094;10.016;2023-04-15T02:37:50;13.90;;;7.07;;
54372;SDS011;69157;53.094;10.016;2023-04-15T02:40:16;15.00;;;6.88;;
54372;SDS011;69157;53.094;10.016;2023-04-15T02:42:42;14.15;;;7.25;;
54372;SDS011;69157;53.094;10.016;2023-04-15T02:45:09;13.70;;;7.55;;
54372;SDS011;69157;53.094;10.016;2023-04-15T02:47:36;13.85;;;7.47;;
54372;SDS011;69157;53.094;10.016;2023-04-15T02:50:07;14.95;;;7.50;;
54372;SDS011;69157;53.094;10.016;2023-04-15T02:52:33;15.02;;;7.65;;
54372;SDS011;69157;53.094;10.016;2023-04-15T02:54:59;14.95;;;8.23;;
54372;SDS011;69157;53.094;10.016;2023-04-15T02:57:26;15.52;;;7.72;;
54372;SDS011;69157;53.094;10.016;2023-04-15T02:59:55;13.52;;;7.10;;
54372;SDS011;69157;53.094;10.016;2023-04-15T03:02:22;14.27;;;7.47;;
54372;SDS011;69157;53.094;10.016;2023-04-15T03:04:48;15.35;;;8.18;;
54372;SDS011;69157;53.094;10.016;2023-04-15T03:07:14;12.05;;;6.75;;
54372;SDS011;69157;53.094;10.016;2023-04-15T03:09:40;12.73;;;7.18;;
54372;SDS011;69157;53.094;10.016;2023-04-15T03:12:07;13.60;;;6.93;;
54372;SDS011;69157;53.094;10.016;2023-04-15T03:14:33;14.55;;;7.65;;
54372;SDS011;69157;53.094;10.016;2023-04-15T03:16:59;12.32;;;6.55;;
54372;SDS011;69157;53.094;10.016;2023-04-15T03:19:25;14.55;;;7.45;;
54372;SDS011;69157;53.094;10.016;2023-04-15T03:21:51;14.32;;;6.55;;
54372;SDS011;69157;53.094;10.016;2023-04-15T03:24:17;13.32;;;6.75;;
54372;SDS011;69157;53.094;10.016;2023-04-15T03:26:43;13.07;;;6.97;;
54372;SDS011;69157;53.094;10.016;2023-04-15T03:29:09;14.60;;;6.65;;
54372;SDS011;69157;53.094;10.016;2023-04-15T03:31:35;12.38;;;6.50;;
54372;SDS011;69157;53.094;10.016;2023-04-15T03:34:01;12.10;;;6.95;;
54372;SDS011;69157;53.094;10.016;2023-04-15T03:36:28;13.95;;;6.90;;
54372;SDS011;69157;53.094;10.016;2023-04-15T03:38:56;12.75;;;7.20;;
54372;SDS011;69157;53.094;10.016;2023-04-15T03:41:22;13.27;;;7.07;;
54372;SDS011;69157;53.094;10.016;2023-04-15T03:43:48;14.40;;;7.40;;
54372;SDS011;69157;53.094;10.016;2023-04-15T03:46:16;14.82;;;6.97;;
54372;SDS011;69157;53.094;10.016;2023-04-15T03:48:42;13.25;;;6.60;;
54372;SDS011;69157;53.094;10.016;2023-04-15T03:51:08;13.13;;;7.43;;
54372;SDS011;69157;53.094;10.016;2023-04-15T03:53:35;13.23;;;6.68;;
54372;SDS011;69157;53.094;10.016;2023-04-15T03:56:01;13.38;;;6.80;;
54372;SDS011;69157;53.094;10.016;2023-04-15T03:58:27;13.73;;;7.22;;
54372;SDS011;69157;53.094;10.016;2023-04-15T04:00:53;11.75;;;6.50;;
54372;SDS011;69157;53.094;10.016;2023-04-15T04:03:19;12.57;;;6.75;;
54372;SDS011;69157;53.094;10.016;2023-04-15T04:05:45;12.25;;;6.45;;
54372;SDS011;69157;53.094;10.016;2023-04-15T04:08:11;12.88;;;6.70;;
54372;SDS011;69157;53.094;10.016;2023-04-15T04:10:38;11.73;;;6.25;;
54372;SDS011;69157;53.094;10.016;2023-04-15T04:13:04;11.32;;;6.13;;
54372;SDS011;69157;53.094;10.016;2023-04-15T04:15:31;9.98;;;5.82;;
54372;SDS011;69157;53.094;10.016;2023-04-15T04:17:57;13.05;;;6.80;;
54372;SDS011;69157;53.094;10.016;2023-04-15T04:20:23;12.50;;;6.55;;
54372;SDS011;69157;53.094;10.016;2023-04-15T04:22:49;11.60;;;6.47;;
54372;SDS011;69157;53.094;10.016;2023-04-15T04:25:15;13.27;;;6.75;;
54372;SDS011;69157;53.094;10.016;2023-04-15T04:27:41;10.90;;;5.68;;
54372;SDS011;69157;53.094;10.016;2023-04-15T04:30:07;14.57;;;7.55;;
54372;SDS011;69157;53.094;10.016;2023-04-15T04:32:33;12.40;;;6.72;;
54372;SDS011;69157;53.094;10.016;2023-04-15T04:35:00;11.38;;;5.95;;
54372;SDS011;69157;53.094;10.016;2023-04-15T04:37:26;13.50;;;6.57;;
54372;SDS011;69157;53.094;10.016;2023-04-15T04:39:52;13.90;;;6.07;;
54372;SDS011;69157;53.094;10.016;2023-04-15T04:42:18;11.23;;;6.38;;
54372;SDS011;69157;53.094;10.016;2023-04-15T04:44:44;11.38;;;6.28;;
54372;SDS011;69157;53.094;10.016;2023-04-15T04:47:10;11.07;;;5.97;;
54372;SDS011;69157;53.094;10.016;2023-04-15T04:49:36;10.07;;;6.15;;
54372;SDS011;69157;53.094;10.016;2023-04-15T04:52:02;10.40;;;5.90;;
54372;SDS011;69157;53.094;10.016;2023-04-15T04:54:28;11.05;;;5.70;;
54372;SDS011;69157;53.094;10.016;2023-04-15T04:56:55;11.68;;;5.85;;
54372;SDS011;69157;53.094;10.016;2023-04-15T04:59:22;8.80;;;5.05;;
54372;SDS011;69157;53.094;10.016;2023-04-15T05:01:48;10.00;;;5.50;;
54372;SDS011;69157;53.094;10.016;2023-04-15T05:04:14;10.25;;;5.43;;
54372;SDS011;69157;53.094;10.016;2023-04-15T05:06:40;10.00;;;5.45;;
54372;SDS011;69157;53.094;10.016;2023-04-15T05:09:06;8.30;;;5.20;;
54372;SDS011;69157;53.094;10.016;2023-04-15T05:11:32;10.90;;;5.55;;
54372;SDS011;69157;53.094;10.016;2023-04-15T05:13:58;7.93;;;4.60;;
54372;SDS011;69157;53.094;10.016;2023-04-15T05:16:26;8.90;;;5.15;;
54372;SDS011;69157;53.094;10.016;2023-04-15T05:18:52;9.20;;;5.13;;
54372;SDS011;69157;53.094;10.016;2023-04-15T05:21:18;9.80;;;5.30;;
54372;SDS011;69157;53.094;10.016;2023-04-15T05:23:44;9.75;;;5.20;;
54372;SDS011;69157;53.094;10.016;2023-04-15T05:26:11;8.93;;;4.70;;
54372;SDS011;69157;53.094;10.016;2023-04-15T05:28:37;9.43;;;5.20;;
54372;SDS011;69157;53.094;10.016;2023-04-15T05:31:03;9.20;;;4.90;;
54372;SDS011;69157;53.094;10.016;2023-04-15T05:33:29;10.25;;;5.63;;
54372;SDS011;69157;53.094;10.016;2023-04-15T05:35:55;9.27;;;5.25;;
54372;SDS011;69157;53.094;10.016;2023-04-15T05:38:21;11.52;;;5.80;;
54372;SDS011;69157;53.094;10.016;2023-04-15T05:40:47;10.85;;;5.38;;
54372;SDS011;69157;53.094;10.016;2023-04-15T05:43:13;10.30;;;5.60;;
54372;SDS011;69157;53.094;10.016;2023-04-15T05:45:39;10.90;;;6.07;;
54372;SDS011;69157;53.094;10.016;2023-04-15T05:48:06;10.93;;;5.80;;
54372;SDS011;69157;53.094;10.016;2023-04-15T05:50:32;10.80;;;5.72;;
54372;SDS011;69157;53.094;10.016;2023-04-15T05:52:58;11.27;;;5.85;;
54372;SDS011;69157;53.094;10.016;2023-04-15T05:55:24;12.68;;;6.10;;
54372;SDS011;69157;53.094;10.016;2023-04-15T05:57:51;11.82;;;5.60;;
54372;SDS011;69157;53.094;10.016;2023-04-15T06:00:17;11.18;;;5.60;;
54372;SDS011;69157;53.094;10.016;2023-04-15T06:02:44;12.70;;;6.72;;
54372;SDS011;69157;53.094;10.016;2023-04-15T06:05:10;13.77;;;7.28;;
54372;SDS011;69157;53.094;10.016;2023-04-15T06:07:36;12.77;;;6.65;;
54372;SDS011;69157;53.094;10.016;2023-04-15T06:10:03;12.93;;;6.65;;
54372;SDS011;69157;53.094;10.016;2023-04-15T06:12:29;13.15;;;6.85;;
54372;SDS011;69157;53.094;10.016;2023-04-15T06:14:56;11.82;;;6.63;;
54372;SDS011;69157;53.094;10.016;2023-04-15T06:17:22;12.15;;;7.03;;
54372;SDS011;69157;53.094;10.016;2023-04-15T06:19:48;13.05;;;6.10;;
54372;SDS011;69157;53.094;10.016;2023-04-15T06:22:19;13.48;;;7.38;;
54372;SDS011;69157;53.094;10.016;2023-04-15T06:24:45;13.07;;;6.63;;
54372;SDS011;69157;53.094;10.016;2023-04-15T06:27:12;11.82;;;6.57;;
54372;SDS011;69157;53.094;10.016;2023-04-15T06:29:38;12.25;;;7.35;;
54372;SDS011;69157;53.094;10.016;2023-04-15T06:32:05;15.45;;;7.22;;
54372;SDS011;69157;53.094;10.016;2023-04-15T06:34:31;13.57;;;6.90;;
54372;SDS011;69157;53.094;10.016;2023-04-15T06:36:57;12.32;;;7.10;;
54372;SDS011;69157;53.094;10.016;2023-04-15T06:39:23;16.95;;;7.88;;
54372;SDS011;69157;53.094;10.016;2023-04-15T06:41:49;13.25;;;7.10;;
54372;SDS011;69157;53.094;10.016;2023-04-15T06:44:15;14.88;;;7.85;;
54372;SDS011;69157;53.094;10.016;2023-04-15T06:46:41;17.63;;;7.57;;
54372;SDS011;69157;53.094;10.016;2023-04-15T06:49:07;17.20;;;7.82;;
54372;SDS011;69157;53.094;10.016;2023-04-15T06:51:34;17.13;;;8.70;;
54372;SDS011;69157;53.094;10.016;2023-04-15T06:54:00;19.33;;;8.32;;
54372;SDS011;69157;53.094;10.016;2023-04-15T06:56:29;21.25;;;10.65;;
54372;SDS011;69157;53.094;10.016;2023-04-15T06:58:55;21.67;;;9.23;;
54372;SDS011;69157;53.094;10.016;2023-04-15T07:01:21;25.40;;;11.43;;
54372;SDS011;69157;53.094;10.016;2023-04-15T07:03:47;27.65;;;11.48;;
54372;SDS011;69157;53.094;10.016;2023-04-15T07:06:14;25.83;;;11.05;;
54372;SDS011;69157;53.094;10.016;2023-04-15T07:08:40;27.65;;;11.88;;
54372;SDS011;69157;53.094;10.016;2023-04-15T07:11:06;27.20;;;12.13;;
54372;SDS011;69157;53.094;10.016;2023-04-15T07:13:33;27.65;;;11.90;;
54372;SDS011;69157;53.094;10.016;2023-04-15T07:15:59;26.33;;;12.48;;
54372;SDS011;69157;53.094;10.016;2023-04-15T07:18:25;28.83;;;12.93;;
54372;SDS011;69157;53.094;10.016;2023-04-15T07:20:51;26.90;;;12.38;;
54372;SDS011;69157;53.094;10.016;2023-04-15T07:23:17;29.30;;;11.88;;
54372;SDS011;69157;53.094;10.016;2023-04-15T07:25:43;29.63;;;12.77;;
54372;SDS011;69157;53.094;10.016;2023-04-15T07:28:09;30.00;;;12.95;;
54372;SDS011;69157;53.094;10.016;2023-04-15T07:30:35;28.33;;;12.77;;
54372;SDS011;69157;53.094;10.016;2023-04-15T07:33:01;31.75;;;14.23;;
54372;SDS011;69157;53.094;10.016;2023-04-15T07:35:27;28.23;;;13.38;;
54372;SDS011;69157;53.094;10.016;2023-04-15T07:37:54;34.15;;;13.95;;
54372;SDS011;69157;53.094;10.016;2023-04-15T07:40:20;27.63;;;12.65;;
54372;SDS011;69157;53.094;10.016;2023-04-15T07:42:46;29.25;;;12.43;;
54372;SDS011;69157;53.094;10.016;2023-04-15T07:45:13;31.30;;;13.77;;
54372;SDS011;69157;53.094;10.016;2023-04-15T07:47:40;34.83;;;14.38;;
54372;SDS011;69157;53.094;10.016;2023-04-15T07:50:07;33.08;;;14.23;;
54372;SDS011;69157;53.094;10.016;2023-04-15T07:52:35;35.38;;;13.88;;
54372;SDS011;69157;53.094;10.016;2023-04-15T07:55:06;31.52;;;14.05;;
54372;SDS011;69157;53.094;10.016;2023-04-15T07:57:33;34.85;;;14.30;;
54372;SDS011;69157;53.094;10.016;2023-04-15T07:59:59;36.22;;;15.23;;
54372;SDS011;69157;53.094;10.016;2023-04-15T08:02:25;35.67;;;13.95;;
54372;SDS011;69157;53.094;10.016;2023-04-15T08:04:51;36.10;;;15.07;;
54372;SDS011;69157;53.094;10.016;2023-04-15T08:07:18;35.05;;;14.35;;
54372;SDS011;69157;53.094;10.016;2023-04-15T08:09:44;35.92;;;16.23;;
54372;SDS011;69157;53.094;10.016;2023-04-15T08:12:10;36.72;;;15.23;;
54372;SDS011;69157;53.094;10.016;2023-04-15T08:14:37;33.38;;;14.55;;
54372;SDS011;69157;53.094;10.016;2023-04-15T08:17:04;37.63;;;15.70;;
54372;SDS011;69157;53.094;10.016;2023-04-15T08:19:30;34.72;;;14.77;;
54372;SDS011;69157;53.094;10.016;2023-04-15T08:21:56;32.90;;;15.18;;
54372;SDS011;69157;53.094;10.016;2023-04-15T08:24:23;37.47;;;15.65;;
54372;SDS011;69157;53.094;10.016;2023-04-15T08:26:50;37.22;;;15.27;;
54372;SDS011;69157;53.094;10.016;2023-04-15T08:29:16;36.17;;;14.95;;
54372;SDS011;69157;53.094;10.016;2023-04-15T08:31:42;36.35;;;16.40;;
54372;SDS011;69157;53.094;10.016;2023-04-15T08:34:10;39.08;;;15.23;;
54372;SDS011;69157;53.094;10.016;2023-04-15T08:36:36;37.55;;;15.75;;
54372;SDS011;69157;53.094;10.016;2023-04-15T08:39:02;38.08;;;16.15;;
54372;SDS011;69157;53.094;10.016;2023-04-15T08:41:31;40.08;;;15.82;;
54372;SDS011;69157;53.094;10.016;2023-04-15T08:44:03;36.95;;;15.90;;
54372;SDS011;69157;53.094;10.016;2023-04-15T08:46:30;37.55;;;16.05;;
54372;SDS011;69157;53.094;10.016;2023-04-15T08:48:58;37.17;;;16.38;;
54372;SDS011;69157;53.094;10.016;2023-04-15T08:51:24;37.00;;;16.08;;
54372;SDS011;69157;53.094;10.016;2023-04-15T08:53:51;38.47;;;15.73;;
54372;SDS011;69157;53.094;10.016;2023-04-15T08:56:17;37.55;;;15.95;;
54372;SDS011;69157;53.094;10.016;2023-04-15T08:58:44;35.88;;;16.05;;
54372;SDS011;69157;53.094;10.016;2023-04-15T09:01:11;40.08;;;16.58;;
54372;SDS011;69157;53.094;10.016;2023-04-15T09:03:38;36.33;;;16.77;;
54372;SDS011;69157;53.094;10.016;2023-04-15T09:06:04;33.28;;;16.15;;
54372;SDS011;69157;53.094;10.016;2023-04-15T09:08:31;37.35;;;15.80;;
54372;SDS011;69157;53.094;10.016;2023-04-15T09:10:58;39.05;;;16.65;;
54372;SDS011;69157;53.094;10.016;2023-04-15T09:13:24;39.42;;;17.00;;
54372;SDS011;69157;53.094;10.016;2023-04-15T09:15:50;41.42;;;16.80;;
54372;SDS011;69157;53.094;10.016;2023-04-15T09:18:26;37.38;;;17.67;;
54372;SDS011;69157;53.094;10.016;2023-04-15T09:20:53;40.78;;;16.77;;
54372;SDS011;69157;53.094;10.016;2023-04-15T09:23:19;36.30;;;16.20;;
54372;SDS011;69157;53.094;10.016;2023-04-15T09:25:45;42.70;;;16.52;;
54372;SDS011;69157;53.094;10.016;2023-04-15T09:28:13;38.47;;;17.13;;
54372;SDS011;69157;53.094;10.016;2023-04-15T09:30:41;37.05;;;16.13;;
54372;SDS011;69157;53.094;10.016;2023-04-15T09:33:13;38.38;;;16.85;;
54372;SDS011;69157;53.094;10.016;2023-04-15T09:35:39;41.08;;;17.45;;
54372;SDS011;69157;53.094;10.016;2023-04-15T09:38:06;42.85;;;18.15;;
54372;SDS011;69157;53.094;10.016;2023-04-15T09:40:41;39.60;;;17.27;;
54372;SDS011;69157;53.094;10.016;2023-04-15T09:43:08;45.38;;;18.20;;
54372;SDS011;69157;53.094;10.016;2023-04-15T09:45:36;38.78;;;17.88;;
54372;SDS011;69157;53.094;10.016;2023-04-15T09:48:21;39.92;;;17.42;;
54372;SDS011;69157;53.094;10.016;2023-04-15T09:50:49;43.25;;;18.40;;
54372;SDS011;69157;53.094;10.016;2023-04-15T09:53:19;44.50;;;17.58;;
54372;SDS011;69157;53.094;10.016;2023-04-15T09:55:49;42.70;;;17.88;;
54372;SDS011;69157;53.094;10.016;2023-04-15T09:58:16;41.67;;;18.05;;
54372;SDS011;69157;53.094;10.016;2023-04-15T10:00:43;46.63;;;19.52;;
54372;SDS011;69157;53.094;10.016;2023-04-15T10:03:10;42.65;;;18.38;;
54372;SDS011;69157;53.094;10.016;2023-04-15T10:05:36;43.92;;;18.60;;
54372;SDS011;69157;53.094;10.016;2023-04-15T10:08:03;43.83;;;18.52;;
54372;SDS011;69157;53.094;10.016;2023-04-15T10:10:29;44.70;;;19.00;;
54372;SDS011;69157;53.094;10.016;2023-04-15T10:12:57;42.72;;;18.58;;
54372;SDS011;69157;53.094;10.016;2023-04-15T10:15:23;41.72;;;19.30;;
54372;SDS011;69157;53.094;10.016;2023-04-15T10:17:50;39.35;;;17.25;;
54372;SDS011;69157;53.094;10.016;2023-04-15T10:20:18;42.67;;;18.13;;
54372;SDS011;69157;53.094;10.016;2023-04-15T10:22:44;52.25;;;18.58;;
54372;SDS011;69157;53.094;10.016;2023-04-15T10:25:11;40.50;;;18.23;;
54372;SDS011;69157;53.094;10.016;2023-04-15T10:27:38;44.10;;;18.40;;
54372;SDS011;69157;53.094;10.016;2023-04-15T10:30:06;39.55;;;17.67;;
54372;SDS011;69157;53.094;10.016;2023-04-15T10:32:33;43.78;;;18.83;;
54372;SDS011;69157;53.094;10.016;2023-04-15T10:34:59;41.80;;;18.90;;
54372;SDS011;69157;53.094;10.016;2023-04-15T10:37:33;39.28;;;18.17;;
54372;SDS011;69157;53.094;10.016;2023-04-15T10:39:59;41.53;;;19.17;;
54372;SDS011;69157;53.094;10.016;2023-04-15T10:42:32;43.80;;;19.17;;
54372;SDS011;69157;53.094;10.016;2023-04-15T10:44:59;45.58;;;19.95;;
54372;SDS011;69157;53.094;10.016;2023-04-15T10:47:25;45.92;;;19.42;;
54372;SDS011;69157;53.094;10.016;2023-04-15T10:49:59;41.28;;;18.20;;
54372;SDS011;69157;53.094;10.016;2023-04-15T10:52:26;39.95;;;18.17;;
54372;SDS011;69157;53.094;10.016;2023-04-15T10:55:02;41.72;;;17.85;;
54372;SDS011;69157;53.094;10.016;2023-04-15T10:57:33;38.33;;;17.40;;
54372;SDS011;69157;53.094;10.016;2023-04-15T11:05:05;37.15;;;17.67;;
54372;SDS011;69157;53.094;10.016;2023-04-15T11:07:51;42.38;;;19.30;;
54372;SDS011;69157;53.094;10.016;2023-04-15T11:12:59;40.88;;;18.30;;
54372;SDS011;69157;53.094;10.016;2023-04-15T11:17:56;37.35;;;17.58;;
54372;SDS011;69157;53.094;10.016;2023-04-15T11:20:22;36.17;;;17.75;;
54372;SDS011;69157;53.094;10.016;2023-04-15T11:22:52;32.65;;;15.75;;
54372;SDS011;69157;53.094;10.016;2023-04-15T11:25:25;32.40;;;17.00;;
54372;SDS011;69157;53.094;10.016;2023-04-15T11:27:51;33.53;;;16.38;;
54372;SDS011;69157;53.094;10.016;2023-04-15T11:30:19;31.83;;;15.73;;
54372;SDS011;69157;53.094;10.016;2023-04-15T11:32:49;35.30;;;17.48;;
54372;SDS011;69157;53.094;10.016;2023-04-15T11:35:15;32.05;;;16.33;;
54372;SDS011;69157;53.094;10.016;2023-04-15T11:37:45;29.38;;;14.68;;
54372;SDS011;69157;53.094;10.016;2023-04-15T11:40:12;29.27;;;15.95;;
54372;SDS011;69157;53.094;10.016;2023-04-15T11:42:41;28.90;;;14.55;;
54372;SDS011;69157;53.094;10.016;2023-04-15T11:45:08;33.83;;;15.20;;
54372;SDS011;69157;53.094;10.016;2023-04-15T11:47:35;26.77;;;14.30;;
54372;SDS011;69157;53.094;10.016;2023-04-15T11:50:20;27.92;;;14.75;;
54372;SDS011;69157;53.094;10.016;2023-04-15T11:55:18;28.63;;;13.95;;
54372;SDS011;69157;53.094;10.016;2023-04-15T11:57:44;25.42;;;13.65;;
54372;SDS011;69157;53.094;10.016;2023-04-15T12:00:11;24.92;;;13.32;;
54372;SDS011;69157;53.094;10.016;2023-04-15T12:02:37;24.73;;;13.07;;
54372;SDS011;69157;53.094;10.016;2023-04-15T12:05:07;21.67;;;12.25;;
54372;SDS011;69157;53.094;10.016;2023-04-15T12:07:43;24.90;;;12.93;;
54372;SDS011;69157;53.094;10.016;2023-04-15T12:10:19;24.95;;;12.77;;
54372;SDS011;69157;53.094;10.016;2023-04-15T12:12:48;23.73;;;12.80;;
54372;SDS011;69157;53.094;10.016;2023-04-15T12:15:14;21.88;;;12.07;;
54372;SDS011;69157;53.094;10.016;2023-04-15T12:17:40;23.55;;;12.80;;
54372;SDS011;69157;53.094;10.016;2023-04-15T12:20:07;22.92;;;12.38;;
54372;SDS011;69157;53.094;10.016;2023-04-15T12:22:36;19.05;;;11.68;;
54372;SDS011;69157;53.094;10.016;2023-04-15T12:25:02;21.30;;;12.32;;
54372;SDS011;69157;53.094;10.016;2023-04-15T12:27:30;23.50;;;12.75;;
54372;SDS011;69157;53.094;10.016;2023-04-15T12:30:05;21.45;;;11.93;;
54372;SDS011;69157;53.094;10.016;2023-04-15T12:32:35;20.08;;;11.10;;
54372;SDS011;69157;53.094;10.016;2023-04-15T12:35:01;19.48;;;11.43;;
54372;SDS011;69157;53.094;10.016;2023-04-15T12:37:27;20.33;;;11.98;;
54372;SDS011;69157;53.094;10.016;2023-04-15T12:39:53;19.95;;;12.65;;
54372;SDS011;69157;53.094;10.016;2023-04-15T12:42:19;17.45;;;10.88;;
54372;SDS011;69157;53.094;10.016;2023-04-15T12:44:46;21.23;;;11.85;;
54372;SDS011;69157;53.094;10.016;2023-04-15T12:47:12;17.25;;;10.68;;
54372;SDS011;69157;53.094;10.016;2023-04-15T12:49:38;19.83;;;10.90;;
54372;SDS011;69157;53.094;10.016;2023-04-15T12:52:05;15.55;;;10.63;;
54372;SDS011;69157;53.094;10.016;2023-04-15T12:54:31;19.17;;;11.18;;
54372;SDS011;69157;53.094;10.016;2023-04-15T12:56:57;19.67;;;11.02;;
54372;SDS011;69157;53.094;10.016;2023-04-15T12:59:23;18.27;;;11.05;;
54372;SDS011;69157;53.094;10.016;2023-04-15T13:01:49;16.38;;;10.00;;
54372;SDS011;69157;53.094;10.016;2023-04-15T13:04:16;20.50;;;10.57;;
54372;SDS011;69157;53.094;10.016;2023-04-15T13:06:42;17.83;;;10.90;;
54372;SDS011;69157;53.094;10.016;2023-04-15T13:09:08;19.00;;;11.35;;
54372;SDS011;69157;53.094;10.016;2023-04-15T13:11:34;17.70;;;10.90;;
54372;SDS011;69157;53.094;10.016;2023-04-15T13:14:01;18.77;;;11.02;;
54372;SDS011;69157;53.094;10.016;2023-04-15T13:16:28;18.23;;;11.10;;
54372;SDS011;69157;53.094;10.016;2023-04-15T13:18:54;18.20;;;11.63;;
54372;SDS011;69157;53.094;10.016;2023-04-15T13:21:20;20.27;;;11.40;;
54372;SDS011;69157;53.094;10.016;2023-04-15T13:23:47;17.05;;;10.55;;
54372;SDS011;69157;53.094;10.016;2023-04-15T13:26:16;19.17;;;11.18;;
54372;SDS011;69157;53.094;10.016;2023-04-15T13:28:42;19.17;;;10.98;;
54372;SDS011;69157;53.094;10.016;2023-04-15T13:31:08;17.00;;;10.75;;
54372;SDS011;69157;53.094;10.016;2023-04-15T13:33:34;16.70;;;10.82;;
54372;SDS011;69157;53.094;10.016;2023-04-15T13:36:00;16.63;;;10.63;;
54372;SDS011;69157;53.094;10.016;2023-04-15T13:38:27;18.20;;;10.13;;
54372;SDS011;69157;53.094;10.016;2023-04-15T13:40:53;18.45;;;11.13;;
54372;SDS011;69157;53.094;10.016;2023-04-15T13:43:19;18.35;;;10.98;;
54372;SDS011;69157;53.094;10.016;2023-04-15T13:45:45;17.25;;;10.68;;
54372;SDS011;69157;53.094;10.016;2023-04-15T13:48:12;20.90;;;11.35;;
54372;SDS011;69157;53.094;10.016;2023-04-15T13:50:38;14.65;;;9.57;;
54372;SDS011;69157;53.094;10.016;2023-04-15T13:53:05;17.88;;;10.00;;
54372;SDS011;69157;53.094;10.016;2023-04-15T13:55:31;15.38;;;9.68;;
54372;SDS011;69157;53.094;10.016;2023-04-15T13:57:59;15.38;;;9.70;;
54372;SDS011;69157;53.094;10.016;2023-04-15T14:00:25;15.57;;;10.63;;
54372;SDS011;69157;53.094;10.016;2023-04-15T14:02:51;15.40;;;9.80;;
54372;SDS011;69157;53.094;10.016;2023-04-15T14:05:17;12.85;;;9.02;;
54372;SDS011;69157;53.094;10.016;2023-04-15T14:07:43;14.48;;;8.75;;
54372;SDS011;69157;53.094;10.016;2023-04-15T14:10:09;14.85;;;9.27;;
54372;SDS011;69157;53.094;10.016;2023-04-15T14:12:35;15.70;;;9.95;;
54372;SDS011;69157;53.094;10.016;2023-04-15T14:15:01;13.88;;;9.70;;
54372;SDS011;69157;53.094;10.016;2023-04-15T14:17:27;16.67;;;10.07;;
54372;SDS011;69157;53.094;10.016;2023-04-15T14:19:53;14.13;;;9.65;;
54372;SDS011;69157;53.094;10.016;2023-04-15T14:22:19;14.38;;;10.15;;
54372;SDS011;69157;53.094;10.016;2023-04-15T14:24:45;16.52;;;9.85;;
54372;SDS011;69157;53.094;10.016;2023-04-15T14:27:13;16.30;;;10.02;;